Anoka, MN (55304)

9:50 AM CDT on October 24, 2014 (GMT -0500)
AC Ham Lake | Change Station
CLOSE
Current Station
Personal Weather Station
Location: Ham Lake, MN
Elevation: 912 ft
Nearby Weather Stations

Elev 912 ft 45.25 °N, 93.24 °W | Updated 9 minutes ago

Mostly Cloudy
Mostly Cloudy
53.2 °F
Feels Like 53.2 °F
N
2.0
Wind Variable Wind from SE
Gusts 6.0 mph

Today
High -- | Low -- °F
--% Chance of Precip.
Yesterday
High -- | Low -- °F
Precip. -- in
7:40 AM 6:12 PM
New Moon, 1% visible
Pressure 29.88 in
Visibility 10.0 miles
Clouds Mostly Cloudy 25000 ft
Dew Point 49 °F
Humidity 86%
Rainfall 0.00 in
Snow Depth Not available.
UV 1 out of 12
Pollen .90 out of 12
Ozone Good
PM2.5 Good
Flu Activity Sporadic
METAR KANE 241445Z 14006KT 10SM BKN250 13/11 A2988

More Conditions Fewer Conditions

Pressure 29.88 in
Visibility 10.0 miles
Clouds Mostly Cloudy 25000 ft
Dew Point 49 °F
Humidity 86%
Rainfall 0.00 in
Snow Depth Not available.
UV 1 out of 12
Pollen .90 out of 12
Ozone Good
PM2.5 Good
Flu Activity Sporadic
METAR KANE 241445Z 14006KT 10SM BKN250 13/11 A2988

More Conditions Fewer Conditions

10-Day Weather Forecast

Almanac

Astronomy

Oct. 24, 2014 Rise Set
Actual Time 7:40 AM CDT 6:12 PM CDT
Civil Twilight 7:10 AM CDT 6:42 PM CDT
Nautical Twilight 6:36 AM CDT 7:17 PM CDT
Astronomical Twilight 6:02 AM CDT 7:51 PM CDT
Moon 8:22 AM CDT 6:50 PM CDT
Length of Visible Light 11h 31m
Length of Day
10h 31m
Tomorrow will be 2m 56s shorter.
New Moon, 1% of the Moon is Illuminated
Today
New Moon
Oct 30
First Quarter
Nov 6
Full
Nov 14
Last Quarter
Nov 22
New

Today's Extremes

State Highs State Lows

Community

WunderPhotos

Upload Photos

1,764,581 photos uploaded!

Nearby

Air Quality

  Air Quality AQ Index Pollutant
Yesterday Good
PM2.5
Yesterday Good
OZONE
Current Good
PM2.5
Current Good
OZONE
Friday Good
PM2.5
Saturday Good
PM2.5
Sunday Moderate
PM2.5
Monday Moderate
PM2.5
Tuesday Good
PM2.5

Snow Depth

Station Depth Elevation
No new snow has been reported.

Earthquake Activity

City Distance Mag. Time & Date
No recent earthquake activity has been reported nearby.
Minimum magnitude displayed is 2.5.

Coastal Water Temperatures

Place Temperature
No Stations Reporting

Nearby Weather Stations